Time;durP1;ratioP1;P1;durP2;ratioP2;P2;SDS_P1;SDS_P2;PMS_P1;PMS_P2;Temp;Humidity;BMP_temperature;BMP_pressure;BME280_temperature;BME280_humidity;BME280_pressure;Samples;Min_cycle;Max_cycle;Signal;HPM_P1;HPM_P2
2022/06/17 00:02:20;;;;;;;11.50;8.90;;;;;;;;;;5210156;28;20476;-77
2022/06/17 00:04:52;;;;;;;15.13;9.90;;;;;;;;;;5210519;28;20085;-78
2022/06/17 00:07:23;;;;;;;17.43;10.37;;;;;;;;;;5208972;28;20049;-77
2022/06/17 00:09:54;;;;;;;15.63;9.40;;;;;;;;;;5208471;28;20033;-77
2022/06/17 00:12:25;;;;;;;13.97;9.00;;;;;;;;;;5207384;28;20033;-77
2022/06/17 00:15:11;;;;;;;19.33;9.23;;;;;;;;;;5209296;28;20022;-77
2022/06/17 00:17:52;;;;;;;11.90;8.37;;;;;;;;;;5210138;28;20084;-77
2022/06/17 00:20:24;;;;;;;9.47;8.40;;;;;;;;;;5219416;28;20157;-77
2022/06/17 00:22:55;;;;;;;12.37;8.50;;;;;;;;;;5190330;28;20053;-77
2022/06/17 00:25:28;;;;;;;15.47;8.43;;;;;;;;;;5194935;28;20025;-77
2022/06/17 00:28:00;;;;;;;9.70;8.17;;;;;;;;;;5209353;28;20057;-77
2022/06/17 00:30:32;;;;;;;13.43;8.57;;;;;;;;;;5207317;28;20472;-77
2022/06/17 00:33:03;;;;;;;11.10;7.90;;;;;;;;;;5207456;28;20045;-78
2022/06/17 00:35:37;;;;;;;11.40;7.73;;;;;;;;;;5211050;28;20034;-78
2022/06/17 00:38:17;;;;;;;11.70;8.88;;;;;;;;;;5209194;28;20028;-76
2022/06/17 00:40:49;;;;;;;12.67;9.20;;;;;;;;;;5193204;28;20097;-76
2022/06/17 00:43:23;;;;;;;11.93;8.40;;;;;;;;;;5189428;28;20417;-76
2022/06/17 00:46:12;;;;;;;12.48;8.43;;;;;;;;;;5209184;28;20053;-76
2022/06/17 00:49:07;;;;;;;14.47;7.83;;;;;;;;;;5208312;28;20030;-76
2022/06/17 00:51:44;;;;;;;12.13;7.60;;;;;;;;;;5198340;28;20025;-77
2022/06/17 00:54:34;;;;;;;10.33;7.57;;;;;;;;;;5208925;28;20026;-77
2022/06/17 00:57:20;;;;;;;11.77;7.63;;;;;;;;;;5209059;28;20109;-77
2022/06/17 01:00:10;;;;;;;14.20;7.97;;;;;;;;;;5208337;28;20025;-77
2022/06/17 01:02:49;;;;;;;9.03;7.33;;;;;;;;;;5222777;28;20121;-77
2022/06/17 01:05:23;;;;;;;8.77;7.87;;;;;;;;;;5206791;28;20033;-77
2022/06/17 01:07:54;;;;;;;;;;;;;;;;;;5172812;28;1050186;-76
2022/06/17 01:10:26;;;;;;;10.30;7.07;;;;;;;;;;5223888;28;19913;-77
2022/06/17 01:12:57;;;;;;;8.80;6.93;;;;;;;;;;5207937;28;20042;-78
2022/06/17 01:15:29;;;;;;;9.80;6.73;;;;;;;;;;5209155;28;20041;-77
2022/06/17 01:18:01;;;;;;;10.30;6.87;;;;;;;;;;5209426;28;20068;-77
2022/06/17 01:20:33;;;;;;;8.97;7.50;;;;;;;;;;5208901;28;20116;-77
2022/06/17 01:23:08;;;;;;;8.67;6.57;;;;;;;;;;5209491;28;20025;-77
2022/06/17 01:25:41;;;;;;;12.23;7.10;;;;;;;;;;5212956;28;20061;-78
2022/06/17 01:28:14;;;;;;;9.83;6.40;;;;;;;;;;5213235;28;20416;-77
2022/06/17 01:30:52;;;;;;;8.67;6.10;;;;;;;;;;5212125;28;20025;-76
2022/06/17 01:33:30;;;;;;;10.70;6.90;;;;;;;;;;5212689;28;20559;-76
2022/06/17 01:36:04;;;;;;;9.03;7.13;;;;;;;;;;5192243;28;20029;-78
2022/06/17 01:38:37;;;;;;;9.10;7.30;;;;;;;;;;5192900;28;20030;-77
2022/06/17 01:41:09;;;;;;;10.67;6.70;;;;;;;;;;5212400;28;20030;-77
2022/06/17 01:43:48;;;;;;;7.77;6.50;;;;;;;;;;5212857;28;20014;-77
2022/06/17 01:46:24;;;;;;;12.47;6.83;;;;;;;;;;5212370;28;20462;-77
2022/06/17 01:48:58;;;;;;;10.63;6.87;;;;;;;;;;5212966;28;20475;-77
2022/06/17 01:51:32;;;;;;;7.68;6.88;;;;;;;;;;5212031;28;20030;-75
2022/06/17 01:54:03;;;;;;;;;;;;;;;;;;5227392;28;20448;-76
2022/06/17 01:56:35;;;;;;;9.80;7.07;;;;;;;;;;5212325;28;19909;-76
2022/06/17 01:59:07;;;;;;;9.37;7.37;;;;;;;;;;5212392;28;20052;-77
2022/06/17 02:01:40;;;;;;;8.83;7.03;;;;;;;;;;5212761;28;20096;-76
2022/06/17 02:04:13;;;;;;;7.15;6.35;;;;;;;;;;5212789;28;20030;-76
2022/06/17 02:06:47;;;;;;;14.83;8.10;;;;;;;;;;5212476;28;20040;-76
2022/06/17 02:09:18;;;;;;;8.00;6.78;;;;;;;;;;5212465;28;20051;-77
2022/06/17 02:11:50;;;;;;;11.97;6.80;;;;;;;;;;5212380;28;20948;-77
2022/06/17 02:14:22;;;;;;;10.03;6.80;;;;;;;;;;5212016;28;20026;-76
2022/06/17 02:16:54;;;;;;;9.90;6.87;;;;;;;;;;5212569;28;20034;-77
2022/06/17 02:19:26;;;;;;;8.07;6.20;;;;;;;;;;5211965;28;20017;-78
2022/06/17 02:22:05;;;;;;;10.73;7.10;;;;;;;;;;5210733;28;20022;-76
2022/06/17 02:24:38;;;;;;;9.30;6.77;;;;;;;;;;5212022;28;20058;-77
2022/06/17 02:27:11;;;;;;;7.97;7.17;;;;;;;;;;5212160;28;20396;-77
2022/06/17 02:29:43;;;;;;;8.07;7.17;;;;;;;;;;5211291;28;20030;-77
2022/06/17 02:32:14;;;;;;;10.20;7.23;;;;;;;;;;5211173;28;20030;-77
2022/06/17 02:34:49;;;;;;;10.03;7.37;;;;;;;;;;5211987;28;20014;-78
2022/06/17 02:37:21;;;;;;;10.53;7.13;;;;;;;;;;5209911;28;20040;-78
2022/06/17 02:39:53;;;;;;;11.57;7.17;;;;;;;;;;5212197;28;20017;-76
2022/06/17 02:42:27;;;;;;;8.23;6.57;;;;;;;;;;5222705;28;20121;-77
2022/06/17 02:45:00;;;;;;;9.48;7.22;;;;;;;;;;5206970;28;20018;-76
2022/06/17 02:47:32;;;;;;;10.33;7.50;;;;;;;;;;5191817;28;20448;-77
2022/06/17 02:50:03;;;;;;;12.03;7.27;;;;;;;;;;5192431;28;20032;-77
2022/06/17 02:52:36;;;;;;;10.83;8.07;;;;;;;;;;5214203;28;20026;-77
2022/06/17 02:55:27;;;;;;;12.60;7.97;;;;;;;;;;5191313;28;20034;-77
2022/06/17 02:58:02;;;;;;;9.80;7.37;;;;;;;;;;5198477;28;20421;-77
2022/06/17 03:00:34;;;;;;;8.50;7.07;;;;;;;;;;5211886;28;20029;-77
2022/06/17 03:03:07;;;;;;;9.73;7.40;;;;;;;;;;5207734;28;20080;-76
2022/06/17 03:05:41;;;;;;;9.17;6.67;;;;;;;;;;5209781;28;20022;-77
2022/06/17 03:08:18;;;;;;;11.57;7.85;;;;;;;;;;5211298;28;20492;-78
2022/06/17 03:10:51;;;;;;;11.03;7.60;;;;;;;;;;5207797;28;20049;-78
2022/06/17 03:13:24;;;;;;;12.43;8.07;;;;;;;;;;5211257;28;20025;-78
2022/06/17 03:15:57;;;;;;;9.43;7.03;;;;;;;;;;5210522;28;20116;-76
2022/06/17 03:18:28;;;;;;;9.27;6.60;;;;;;;;;;5211195;28;20101;-77
2022/06/17 03:21:00;;;;;;;12.37;7.77;;;;;;;;;;5225210;28;20121;-76
2022/06/17 03:23:50;;;;;;;13.03;7.60;;;;;;;;;;5210266;28;20087;-77
2022/06/17 03:26:24;;;;;;;12.30;6.87;;;;;;;;;;5211000;28;20100;-77
2022/06/17 03:28:56;;;;;;;11.57;7.20;;;;;;;;;;5211080;28;20026;-78
2022/06/17 03:31:33;;;;;;;9.97;8.00;;;;;;;;;;5209841;28;20423;-77
2022/06/17 03:34:04;;;;;;;9.43;7.57;;;;;;;;;;5209747;28;20075;-77
2022/06/17 03:36:38;;;;;;;12.48;8.05;;;;;;;;;;5210054;28;20022;-77
2022/06/17 03:39:24;;;;;;;10.30;7.45;;;;;;;;;;5210713;28;20079;-77
2022/06/17 03:42:08;;;;;;;12.07;8.70;;;;;;;;;;5209637;28;20044;-77
2022/06/17 03:44:55;;;;;;;12.75;8.13;;;;;;;;;;5207555;28;20028;-76
2022/06/17 03:47:57;;;;;;;12.00;8.23;;;;;;;;;;5207726;28;20037;-77
2022/06/17 03:50:32;;;;;;;12.10;7.67;;;;;;;;;;5184543;28;20044;-77
2022/06/17 03:53:05;;;;;;;10.03;6.83;;;;;;;;;;5210329;28;20026;-77
2022/06/17 03:55:36;;;;;;;8.70;7.40;;;;;;;;;;5210770;28;20098;-76
2022/06/17 03:58:11;;;;;;;11.37;8.77;;;;;;;;;;5209601;28;20533;-78
2022/06/17 04:01:11;;;;;;;12.57;7.10;;;;;;;;;;5210883;28;20025;-78
2022/06/17 04:03:46;;;;;;;9.27;7.87;;;;;;;;;;5168794;28;20389;-78
2022/06/17 04:06:20;;;;;;;10.83;7.97;;;;;;;;;;5200198;28;20042;-77
2022/06/17 04:08:51;;;;;;;10.93;8.20;;;;;;;;;;5211115;28;20181;-76
2022/06/17 04:11:26;;;;;;;11.77;8.05;;;;;;;;;;5208681;28;20490;-76
2022/06/17 04:13:59;;;;;;;11.97;7.87;;;;;;;;;;5217596;28;20370;-76
2022/06/17 04:16:41;;;;;;;13.70;7.63;;;;;;;;;;5199892;28;20587;-76
2022/06/17 04:19:17;;;;;;;12.60;8.20;;;;;;;;;;5208193;28;20025;-76
2022/06/17 04:21:48;;;;;;;11.87;7.93;;;;;;;;;;5201062;28;20381;-76
2022/06/17 04:24:22;;;;;;;9.73;7.97;;;;;;;;;;5202840;28;20037;-77
2022/06/17 04:26:55;;;;;;;15.48;9.27;;;;;;;;;;5204696;28;20095;-77
2022/06/17 04:29:36;;;;;;;12.57;8.48;;;;;;;;;;5209645;28;20041;-78
2022/06/17 04:32:15;;;;;;;15.20;8.20;;;;;;;;;;5209584;28;20030;-76
2022/06/17 04:34:47;;;;;;;10.43;8.67;;;;;;;;;;5208644;28;20388;-77
2022/06/17 04:37:20;;;;;;;13.10;8.63;;;;;;;;;;5209498;28;20022;-79
2022/06/17 04:39:58;;;;;;;12.60;9.05;;;;;;;;;;5209280;28;20017;-76
2022/06/17 04:42:34;;;;;;;11.80;8.50;;;;;;;;;;5209601;28;20030;-76
2022/06/17 04:45:05;;;;;;;8.67;7.50;;;;;;;;;;5209184;28;20048;-78
2022/06/17 04:47:37;;;;;;;22.93;10.93;;;;;;;;;;5209626;28;20037;-77
2022/06/17 04:50:12;;;;;;;15.63;9.23;;;;;;;;;;5208388;28;20029;-77
2022/06/17 04:52:46;;;;;;;13.33;8.30;;;;;;;;;;5207940;28;20045;-78
2022/06/17 04:55:17;;;;;;;;;;;;;;;;;;5209581;28;20022;-76
2022/06/17 04:57:49;;;;;;;11.17;8.37;;;;;;;;;;5209173;28;19991;-77
2022/06/17 05:00:22;;;;;;;10.13;8.10;;;;;;;;;;5208854;28;20433;-78
2022/06/17 05:02:53;;;;;;;10.60;7.37;;;;;;;;;;5208298;28;20030;-77
2022/06/17 05:05:28;;;;;;;13.97;7.77;;;;;;;;;;5205474;28;20037;-77
2022/06/17 05:08:01;;;;;;;13.43;7.20;;;;;;;;;;5208672;28;20108;-77
2022/06/17 05:10:35;;;;;;;9.97;7.37;;;;;;;;;;5206569;28;20018;-77
2022/06/17 05:13:06;;;;;;;12.40;7.38;;;;;;;;;;5208118;28;20088;-75
2022/06/17 05:15:38;;;;;;;13.63;7.80;;;;;;;;;;5206720;28;20030;-77
2022/06/17 05:18:09;;;;;;;11.90;6.67;;;;;;;;;;5206896;28;20030;-76
2022/06/17 05:20:42;;;;;;;10.03;6.70;;;;;;;;;;5207374;28;20028;-77
2022/06/17 05:23:14;;;;;;;10.23;7.03;;;;;;;;;;5207777;28;20030;-77
2022/06/17 05:25:47;;;;;;;10.70;7.50;;;;;;;;;;5206390;28;20030;-78
2022/06/17 05:28:18;;;;;;;12.67;6.90;;;;;;;;;;5205259;28;20030;-78
2022/06/17 05:30:52;;;;;;;12.80;6.97;;;;;;;;;;5207174;28;20681;-78
2022/06/17 05:33:23;;;;;;;13.95;6.93;;;;;;;;;;5221148;28;20113;-78
2022/06/17 05:35:54;;;;;;;11.00;7.63;;;;;;;;;;5206470;28;20129;-79
2022/06/17 05:38:26;;;;;;;10.77;6.73;;;;;;;;;;5206760;28;20137;-78
2022/06/17 05:40:57;;;;;;;11.07;7.67;;;;;;;;;;5207941;28;20464;-78
2022/06/17 05:43:28;;;;;;;11.03;7.53;;;;;;;;;;5209575;28;20018;-79
2022/06/17 05:46:00;;;;;;;15.43;8.50;;;;;;;;;;5208291;28;20034;-76
2022/06/17 05:48:31;;;;;;;17.40;8.20;;;;;;;;;;5209460;28;20033;-77
2022/06/17 05:51:02;;;;;;;10.10;7.63;;;;;;;;;;5201585;28;20410;-77
2022/06/17 05:53:33;;;;;;;14.73;8.23;;;;;;;;;;5187109;28;20019;-77
2022/06/17 05:56:05;;;;;;;14.03;7.67;;;;;;;;;;5188994;28;20022;-76
2022/06/17 05:58:36;;;;;;;11.63;7.97;;;;;;;;;;5189438;28;20014;-76
2022/06/17 06:01:08;;;;;;;8.93;6.77;;;;;;;;;;5206835;28;20030;-76
2022/06/17 06:03:39;;;;;;;11.53;8.40;;;;;;;;;;5208496;28;20010;-77
2022/06/17 06:06:10;;;;;;;11.07;6.87;;;;;;;;;;5207756;28;20026;-74
2022/06/17 06:08:41;;;;;;;14.33;7.20;;;;;;;;;;5208899;28;20054;-77
2022/06/17 06:11:13;;;;;;;12.20;6.47;;;;;;;;;;5209954;28;20037;-78
2022/06/17 06:13:44;;;;;;;11.60;7.10;;;;;;;;;;5210219;28;20020;-77
2022/06/17 06:16:15;;;;;;;11.97;7.43;;;;;;;;;;5212453;28;20068;-76
2022/06/17 06:18:47;;;;;;;10.83;6.07;;;;;;;;;;5212760;28;20025;-73
2022/06/17 06:21:19;;;;;;;10.70;6.40;;;;;;;;;;5211558;28;20026;-77
2022/06/17 06:23:50;;;;;;;11.47;5.40;;;;;;;;;;5210428;28;20018;-78
2022/06/17 06:26:22;;;;;;;10.03;5.80;;;;;;;;;;5211886;28;20017;-76
2022/06/17 06:28:53;;;;;;;9.87;5.70;;;;;;;;;;5212627;28;20033;-75
2022/06/17 06:31:32;;;;;;;8.07;5.60;;;;;;;;;;5210678;28;20022;-76
2022/06/17 06:34:04;;;;;;;15.63;5.43;;;;;;;;;;5209761;28;20366;-78
2022/06/17 06:36:35;;;;;;;9.80;5.70;;;;;;;;;;5210624;28;20044;-77
2022/06/17 06:39:06;;;;;;;10.33;5.43;;;;;;;;;;5210670;28;20037;-74
2022/06/17 06:41:37;;;;;;;11.13;5.13;;;;;;;;;;5211727;28;20473;-76
2022/06/17 06:44:08;;;;;;;9.10;4.40;;;;;;;;;;5211220;28;20026;-78
2022/06/17 06:46:40;;;;;;;10.70;4.77;;;;;;;;;;5211159;28;20034;-77
2022/06/17 06:49:11;;;;;;;10.87;5.23;;;;;;;;;;5224849;28;20026;-76
2022/06/17 06:51:42;;;;;;;10.83;5.27;;;;;;;;;;5212118;28;20528;-78
2022/06/17 06:54:13;;;;;;;12.60;5.13;;;;;;;;;;5210719;28;20029;-78
2022/06/17 06:56:44;;;;;;;9.93;5.97;;;;;;;;;;5212357;28;20028;-78
2022/06/17 06:59:15;;;;;;;8.90;5.30;;;;;;;;;;5211759;28;20105;-77
2022/06/17 07:01:46;;;;;;;7.87;4.53;;;;;;;;;;5211518;28;20022;-76
2022/06/17 07:04:18;;;;;;;8.64;4.76;;;;;;;;;;5210726;28;20096;-77
2022/06/17 07:06:50;;;;;;;12.60;5.17;;;;;;;;;;5211638;28;20034;-77
2022/06/17 07:09:22;;;;;;;12.40;5.00;;;;;;;;;;5211359;28;20176;-76
2022/06/17 07:11:53;;;;;;;11.30;5.60;;;;;;;;;;5212107;28;20026;-77
2022/06/17 07:14:24;;;;;;;10.37;4.73;;;;;;;;;;5211278;28;20108;-75
2022/06/17 07:16:55;;;;;;;10.87;4.70;;;;;;;;;;5212090;28;20026;-77
2022/06/17 07:19:27;;;;;;;10.33;4.83;;;;;;;;;;5210328;28;20034;-77
2022/06/17 07:21:58;;;;;;;9.10;4.47;;;;;;;;;;5210258;28;20028;-77
2022/06/17 07:24:29;;;;;;;8.83;4.77;;;;;;;;;;5211164;28;20149;-78
2022/06/17 07:27:00;;;;;;;10.92;3.90;;;;;;;;;;5212107;28;20036;-78
2022/06/17 07:29:31;;;;;;;7.68;4.15;;;;;;;;;;5211339;28;20052;-78
2022/06/17 07:32:03;;;;;;;10.43;4.03;;;;;;;;;;5209830;28;20028;-77
2022/06/17 07:34:34;;;;;;;9.05;3.67;;;;;;;;;;5210426;28;20024;-77
2022/06/17 07:39:55;;;;;;;15.32;4.03;;;;;;;;;;5210962;28;20041;-76
2022/06/17 07:42:37;;;;;;;9.18;3.83;;;;;;;;;;5210918;28;20045;-76
2022/06/17 07:45:10;;;;;;;8.35;3.17;;;;;;;;;;5210784;28;20084;-77
2022/06/17 07:47:42;;;;;;;6.80;3.47;;;;;;;;;;5211146;28;20030;-77
2022/06/17 07:50:15;;;;;;;8.57;3.22;;;;;;;;;;5210267;28;20045;-77
2022/06/17 07:52:46;;;;;;;6.10;3.00;;;;;;;;;;5210795;28;20022;-78
2022/06/17 07:55:17;;;;;;;8.52;3.58;;;;;;;;;;5214289;28;20101;-78
2022/06/17 07:57:49;;;;;;;9.15;2.95;;;;;;;;;;5213053;28;20017;-79
2022/06/17 08:00:33;;;;;;;10.70;3.17;;;;;;;;;;5214496;28;20022;-78
2022/06/17 08:03:05;;;;;;;11.02;2.85;;;;;;;;;;5210997;28;20025;-78
2022/06/17 08:05:37;;;;;;;11.55;3.35;;;;;;;;;;5209438;28;20022;-78
2022/06/17 08:08:09;;;;;;;3.50;2.75;;;;;;;;;;5210339;28;20062;-76
2022/06/17 08:10:40;;;;;;;6.03;2.75;;;;;;;;;;5209793;28;20483;-76
2022/06/17 08:13:11;;;;;;;4.53;2.33;;;;;;;;;;5210536;28;20030;-77
2022/06/17 08:15:42;;;;;;;6.65;2.40;;;;;;;;;;5210072;28;20436;-77
2022/06/17 08:18:14;;;;;;;10.05;2.60;;;;;;;;;;5209865;28;20696;-76
2022/06/17 08:20:45;;;;;;;5.50;2.92;;;;;;;;;;5207242;28;20025;-76
2022/06/17 08:23:16;;;;;;;5.10;2.65;;;;;;;;;;5207333;28;20868;-76
2022/06/17 08:25:47;;;;;;;8.40;2.88;;;;;;;;;;5209053;28;20014;-76
2022/06/17 08:28:19;;;;;;;6.22;2.92;;;;;;;;;;5208231;28;20030;-76
2022/06/17 08:30:52;;;;;;;5.55;2.85;;;;;;;;;;5209197;28;20676;-75
2022/06/17 08:33:28;;;;;;;5.38;2.40;;;;;;;;;;5205913;28;20117;-76
2022/06/17 08:36:04;;;;;;;4.95;2.45;;;;;;;;;;5207939;28;20013;-77
2022/06/17 08:38:38;;;;;;;6.13;2.28;;;;;;;;;;5209087;28;20013;-76
2022/06/17 08:41:16;;;;;;;5.75;2.22;;;;;;;;;;5208330;28;20018;-76
2022/06/17 08:43:56;;;;;;;6.97;3.00;;;;;;;;;;5207738;28;20061;-76
2022/06/17 08:46:33;;;;;;;8.98;3.22;;;;;;;;;;5209896;28;20144;-76
2022/06/17 08:49:13;;;;;;;7.82;2.40;;;;;;;;;;5208259;28;20472;-76
2022/06/17 08:51:56;;;;;;;4.40;2.70;;;;;;;;;;5207786;28;20117;-76
2022/06/17 08:54:33;;;;;;;9.02;2.75;;;;;;;;;;5208539;28;20668;-75
2022/06/17 08:57:12;;;;;;;5.72;2.28;;;;;;;;;;5207295;28;20112;-75
2022/06/17 08:59:53;;;;;;;5.40;2.47;;;;;;;;;;5191555;28;20032;-75
2022/06/17 09:02:42;;;;;;;8.23;3.08;;;;;;;;;;5202820;28;20460;-75
2022/06/17 09:05:13;;;;;;;9.32;3.15;;;;;;;;;;5208177;28;20606;-75
2022/06/17 09:08:04;;;;;;;5.95;3.20;;;;;;;;;;5204499;28;20041;-75
2022/06/17 09:10:57;;;;;;;7.55;3.00;;;;;;;;;;5206274;28;20548;-76
2022/06/17 09:13:34;;;;;;;8.38;3.25;;;;;;;;;;5207563;28;20029;-75
2022/06/17 09:16:15;;;;;;;10.18;3.83;;;;;;;;;;5207625;28;20024;-77
2022/06/17 09:18:48;;;;;;;7.95;3.63;;;;;;;;;;5203975;28;20018;-77
2022/06/17 09:21:30;;;;;;;6.78;2.90;;;;;;;;;;5208032;28;20026;-78
2022/06/17 09:24:05;;;;;;;5.57;2.92;;;;;;;;;;5207554;28;20029;-75
2022/06/17 09:26:42;;;;;;;5.40;2.80;;;;;;;;;;5203888;28;20065;-74
2022/06/17 09:29:16;;;;;;;8.35;2.72;;;;;;;;;;5203984;28;20029;-75
2022/06/17 09:31:50;;;;;;;7.10;3.03;;;;;;;;;;5207880;28;20696;-76
2022/06/17 09:34:25;;;;;;;9.60;3.10;;;;;;;;;;5205867;28;20445;-78
2022/06/17 09:37:01;;;;;;;8.45;2.83;;;;;;;;;;5206545;28;20061;-76
2022/06/17 09:39:41;;;;;;;9.98;3.20;;;;;;;;;;5204923;28;20029;-73
2022/06/17 09:42:15;;;;;;;9.90;3.50;;;;;;;;;;5206380;28;20022;-73
2022/06/17 09:44:52;;;;;;;7.07;2.40;;;;;;;;;;5207979;28;20088;-72
2022/06/17 09:47:32;;;;;;;8.02;2.42;;;;;;;;;;5208589;28;20044;-73
2022/06/17 09:50:06;;;;;;;9.50;2.95;;;;;;;;;;5207935;28;20030;-72
2022/06/17 09:52:41;;;;;;;4.88;2.40;;;;;;;;;;5210667;28;20100;-73
2022/06/17 09:55:28;;;;;;;7.63;2.42;;;;;;;;;;5210347;28;20021;-74
2022/06/17 09:58:11;;;;;;;4.65;1.92;;;;;;;;;;5207391;28;20026;-76
2022/06/17 10:00:56;;;;;;;6.43;2.28;;;;;;;;;;5210424;28;21446;-81
2022/06/17 10:03:29;;;;;;;5.97;2.42;;;;;;;;;;5212825;28;20079;-75
2022/06/17 10:06:24;;;;;;;5.88;1.92;;;;;;;;;;5208413;28;20595;-76
2022/06/17 10:09:01;;;;;;;4.63;2.35;;;;;;;;;;5207069;28;20049;-75
2022/06/17 10:11:35;;;;;;;5.72;2.20;;;;;;;;;;5210022;28;20028;-75
2022/06/17 10:14:18;;;;;;;5.93;2.03;;;;;;;;;;5209492;28;20380;-76
2022/06/17 10:19:58;;;;;;;4.40;2.00;;;;;;;;;;5207305;28;20396;-76
2022/06/17 10:22:45;;;;;;;7.07;2.03;;;;;;;;;;5210203;28;20545;-75
2022/06/17 10:25:22;;;;;;;4.38;2.08;;;;;;;;;;5207704;28;20032;-76
2022/06/17 10:27:53;;;;;;;5.28;1.88;;;;;;;;;;5207779;28;20022;-76
2022/06/17 10:30:28;;;;;;;3.60;1.95;;;;;;;;;;5207540;28;20033;-75
2022/06/17 10:32:59;;;;;;;5.88;1.80;;;;;;;;;;5209786;28;20057;-76
2022/06/17 10:35:33;;;;;;;3.25;1.40;;;;;;;;;;5206952;28;20488;-75
2022/06/17 10:38:06;;;;;;;5.22;1.42;;;;;;;;;;5209133;28;20175;-77
2022/06/17 10:40:38;;;;;;;3.25;1.55;;;;;;;;;;5206297;28;20033;-76
2022/06/17 10:43:19;;;;;;;7.38;1.63;;;;;;;;;;5209940;28;20162;-77
2022/06/17 10:45:51;;;;;;;4.10;1.50;;;;;;;;;;5209844;28;20181;-75
2022/06/17 10:48:25;;;;;;;3.25;1.20;;;;;;;;;;5210036;28;20034;-75
2022/06/17 10:50:56;;;;;;;3.63;1.50;;;;;;;;;;5207942;28;20018;-75
2022/06/17 10:53:33;;;;;;;3.03;1.42;;;;;;;;;;5209427;28;20033;-76
2022/06/17 10:56:09;;;;;;;3.83;1.40;;;;;;;;;;5210449;28;20030;-75
2022/06/17 10:58:53;;;;;;;3.30;1.77;;;;;;;;;;5205601;28;20045;-74
2022/06/17 11:01:25;;;;;;;4.97;1.38;;;;;;;;;;5208380;28;20493;-74
2022/06/17 11:04:25;;;;;;;3.35;1.67;;;;;;;;;;5208684;28;20100;-74
2022/06/17 11:07:01;;;;;;;7.10;1.80;;;;;;;;;;5197902;28;20517;-74
2022/06/17 11:09:40;;;;;;;3.67;1.20;;;;;;;;;;5216949;28;20050;-76
2022/06/17 11:12:16;;;;;;;4.50;1.60;;;;;;;;;;5212608;28;20037;-76
2022/06/17 11:14:49;;;;;;;6.32;1.60;;;;;;;;;;5209226;28;20030;-76
2022/06/17 11:17:23;;;;;;;6.97;1.85;;;;;;;;;;5207511;28;20025;-77
2022/06/17 11:19:57;;;;;;;3.85;1.38;;;;;;;;;;5208334;28;20026;-75
2022/06/17 11:22:28;;;;;;;;;;;;;;;;;;5212309;28;20014;-76
2022/06/17 11:25:02;;;;;;;2.95;1.30;;;;;;;;;;5209186;28;19959;-76
2022/06/17 11:27:37;;;;;;;4.13;1.25;;;;;;;;;;5210452;28;20053;-76
2022/06/17 11:30:14;;;;;;;5.55;1.30;;;;;;;;;;5209687;28;20014;-76
2022/06/17 11:32:45;;;;;;;4.55;1.67;;;;;;;;;;5219981;28;20466;-76
2022/06/17 11:35:26;;;;;;;7.32;1.65;;;;;;;;;;5220398;28;20024;-77
2022/06/17 11:37:57;;;;;;;10.57;2.63;;;;;;;;;;5214069;28;20530;-77
2022/06/17 11:40:33;;;;;;;6.07;1.67;;;;;;;;;;5209818;28;20026;-77
2022/06/17 11:43:06;;;;;;;5.70;1.45;;;;;;;;;;5203415;28;20543;-73
2022/06/17 11:45:40;;;;;;;4.13;1.10;;;;;;;;;;5206389;28;20018;-73
2022/06/17 11:48:13;;;;;;;5.68;1.52;;;;;;;;;;5229405;28;20043;-78
2022/06/17 11:51:03;;;;;;;4.47;1.60;;;;;;;;;;5222943;28;20022;-76
2022/06/17 11:53:41;;;;;;;4.63;1.33;;;;;;;;;;5211217;28;20026;-76
2022/06/17 11:56:26;;;;;;;4.50;1.50;;;;;;;;;;5202771;28;20524;-76
2022/06/17 11:59:04;;;;;;;4.68;1.38;;;;;;;;;;5206362;28;20468;-77
2022/06/17 12:01:36;;;;;;;6.47;1.40;;;;;;;;;;5227800;28;20026;-75
2022/06/17 12:04:26;;;;;;;4.13;1.45;;;;;;;;;;5206817;28;20416;-76
2022/06/17 12:06:57;;;;;;;7.25;1.20;;;;;;;;;;5206280;28;20057;-76
2022/06/17 12:09:34;;;;;;;3.75;1.20;;;;;;;;;;5211513;28;20072;-77
2022/06/17 12:12:09;;;;;;;3.05;1.17;;;;;;;;;;5207345;28;20072;-77
2022/06/17 12:14:57;;;;;;;5.90;1.63;;;;;;;;;;5208768;28;20548;-75
2022/06/17 12:17:29;;;;;;;5.57;1.42;;;;;;;;;;5205798;28;20029;-76
2022/06/17 12:20:00;;;;;;;5.32;1.02;;;;;;;;;;5212541;28;20028;-75
2022/06/17 12:22:35;;;;;;;2.60;1.10;;;;;;;;;;5207267;28;20100;-75
2022/06/17 12:25:45;;;;;;;3.65;1.17;;;;;;;;;;5206078;28;20022;-75
2022/06/17 12:28:19;;;;;;;5.07;1.20;;;;;;;;;;5169273;28;20054;-74
2022/06/17 12:31:10;;;;;;;5.78;1.30;;;;;;;;;;5176195;28;20138;-75
2022/06/17 12:34:01;;;;;;;6.25;1.20;;;;;;;;;;5148625;28;20445;-74
2022/06/17 12:36:35;;;;;;;6.55;1.50;;;;;;;;;;5208535;28;20106;-73
2022/06/17 12:39:11;;;;;;;5.40;1.45;;;;;;;;;;5207365;28;20033;-73
2022/06/17 12:41:47;;;;;;;3.20;1.20;;;;;;;;;;5208209;28;20053;-72
2022/06/17 12:44:23;;;;;;;4.30;1.23;;;;;;;;;;5207574;28;20020;-75
2022/06/17 12:46:56;;;;;;;5.68;1.30;;;;;;;;;;5208336;28;20044;-74
2022/06/17 12:55:38;;;;;;;5.45;1.20;;;;;;;;;;5204493;28;20038;-77
2022/06/17 12:58:09;;;;;;;3.85;1.20;;;;;;;;;;5210778;28;20025;-77
2022/06/17 13:00:43;;;;;;;3.25;1.08;;;;;;;;;;5234453;28;20606;-77
2022/06/17 13:03:33;;;;;;;5.78;1.30;;;;;;;;;;5231277;28;20036;-79
2022/06/17 13:06:18;;;;;;;5.68;1.27;;;;;;;;;;5206580;28;20076;-77
2022/06/17 13:08:49;;;;;;;3.97;0.90;;;;;;;;;;5216442;28;20058;-77
2022/06/17 13:11:29;;;;;;;3.47;1.05;;;;;;;;;;5217078;28;20113;-78
2022/06/17 13:14:19;;;;;;;4.78;0.88;;;;;;;;;;5208005;28;20148;-78
2022/06/17 13:17:02;;;;;;;7.82;1.40;;;;;;;;;;5208284;28;20109;-78
2022/06/17 13:19:59;;;;;;;2.17;0.80;;;;;;;;;;5217100;28;20096;-78
2022/06/17 13:22:42;;;;;;;5.25;1.13;;;;;;;;;;5212050;28;20053;-78
2022/06/17 13:25:19;;;;;;;2.40;1.10;;;;;;;;;;5218337;28;20587;-77
2022/06/17 13:28:02;;;;;;;6.13;1.00;;;;;;;;;;5210003;28;20061;-77
2022/06/17 13:30:38;;;;;;;4.13;1.15;;;;;;;;;;5212318;28;20026;-79
2022/06/17 13:33:18;;;;;;;4.60;1.40;;;;;;;;;;5209740;28;20072;-78
2022/06/17 13:35:55;;;;;;;5.63;1.10;;;;;;;;;;5211389;28;20022;-78
2022/06/17 13:38:30;;;;;;;8.82;1.42;;;;;;;;;;5210062;28;20032;-78
2022/06/17 13:41:09;;;;;;;6.75;1.20;;;;;;;;;;5206845;28;20006;-78
2022/06/17 13:43:43;;;;;;;4.93;1.40;;;;;;;;;;5211369;28;20117;-77
2022/06/17 13:46:18;;;;;;;8.82;1.67;;;;;;;;;;5210379;28;20081;-76
2022/06/17 13:48:52;;;;;;;3.83;1.10;;;;;;;;;;5209221;28;20659;-76
2022/06/17 13:51:39;;;;;;;5.00;1.33;;;;;;;;;;5211490;28;20021;-78
2022/06/17 13:54:29;;;;;;;7.03;2.22;;;;;;;;;;5211494;28;20137;-77
2022/06/17 13:57:07;;;;;;;8.23;1.45;;;;;;;;;;5220610;28;20449;-77
2022/06/17 13:59:40;;;;;;;6.03;1.27;;;;;;;;;;5206023;28;20029;-76
2022/06/17 14:02:15;;;;;;;2.88;1.52;;;;;;;;;;5209324;28;20029;-76
2022/06/17 14:05:01;;;;;;;2.90;1.35;;;;;;;;;;5209911;28;20026;-77
2022/06/17 14:07:50;;;;;;;4.85;1.40;;;;;;;;;;5212382;28;20080;-82
2022/06/17 14:10:44;;;;;;;3.97;1.15;;;;;;;;;;5215214;28;20537;-84
2022/06/17 14:13:21;;;;;;;6.50;1.20;;;;;;;;;;5208627;28;20114;-83
2022/06/17 14:15:59;;;;;;;5.18;1.15;;;;;;;;;;5211953;28;20021;-81
2022/06/17 14:18:51;;;;;;;2.97;1.10;;;;;;;;;;5208279;28;20400;-72
2022/06/17 14:21:24;;;;;;;3.05;1.33;;;;;;;;;;5208460;28;20104;-78
2022/06/17 14:23:56;;;;;;;2.88;1.33;;;;;;;;;;5211477;28;20022;-78
2022/06/17 14:26:48;;;;;;;4.55;1.65;;;;;;;;;;5209028;28;20041;-75
2022/06/17 14:29:19;;;;;;;2.58;1.20;;;;;;;;;;5203284;28;20504;-81
2022/06/17 14:31:52;;;;;;;4.85;1.60;;;;;;;;;;5205513;28;20052;-79
2022/06/17 14:34:46;;;;;;;6.13;1.38;;;;;;;;;;5204858;28;20029;-76
2022/06/17 14:37:38;;;;;;;3.47;1.30;;;;;;;;;;5198304;28;20136;-75
2022/06/17 14:40:18;;;;;;;4.53;1.35;;;;;;;;;;5200569;28;20033;-79
2022/06/17 14:43:09;;;;;;;6.13;1.83;;;;;;;;;;5205655;28;20057;-77
2022/06/17 14:45:47;;;;;;;7.80;1.50;;;;;;;;;;5201880;28;20084;-76
2022/06/17 14:48:37;;;;;;;3.58;1.38;;;;;;;;;;5206260;28;20393;-79
2022/06/17 14:51:30;;;;;;;3.83;1.10;;;;;;;;;;5205590;28;20026;-77
2022/06/17 14:54:02;;;;;;;5.43;1.63;;;;;;;;;;5206776;28;20587;-79
2022/06/17 14:56:39;;;;;;;5.47;1.08;;;;;;;;;;5207451;28;20101;-80
2022/06/17 14:59:26;;;;;;;1.27;0.85;;;;;;;;;;5207030;28;20030;-79
2022/06/17 15:01:59;;;;;;;4.38;1.10;;;;;;;;;;5208157;28;20084;-79
2022/06/17 15:04:39;;;;;;;5.50;1.17;;;;;;;;;;5206799;28;20560;-78
2022/06/17 15:07:18;;;;;;;8.35;1.80;;;;;;;;;;5205470;28;20032;-77
2022/06/17 15:09:58;;;;;;;4.85;1.20;;;;;;;;;;5208725;28;20045;-78
2022/06/17 15:12:29;;;;;;;4.05;1.13;;;;;;;;;;5208617;28;20435;-77
2022/06/17 15:15:03;;;;;;;6.22;1.27;;;;;;;;;;5208751;28;20072;-77
2022/06/17 15:17:37;;;;;;;5.97;1.30;;;;;;;;;;5207323;28;20535;-78
2022/06/17 15:20:14;;;;;;;5.45;1.17;;;;;;;;;;5205455;28;20066;-76
2022/06/17 15:23:04;;;;;;;5.90;1.33;;;;;;;;;;5202674;28;20047;-75
2022/06/17 15:25:43;;;;;;;4.03;1.35;;;;;;;;;;5220330;28;20037;-77
2022/06/17 15:28:29;;;;;;;5.95;1.58;;;;;;;;;;5207016;28;20579;-75
2022/06/17 15:31:13;;;;;;;5.25;1.42;;;;;;;;;;5207445;28;20064;-76
2022/06/17 15:33:46;;;;;;;7.28;2.25;;;;;;;;;;5207005;28;20028;-75
2022/06/17 15:36:19;;;;;;;4.18;1.42;;;;;;;;;;5207102;28;20037;-76
2022/06/17 15:38:58;;;;;;;6.47;1.95;;;;;;;;;;5203510;28;20014;-76
2022/06/17 15:41:31;;;;;;;4.78;1.25;;;;;;;;;;5208608;28;20041;-76
2022/06/17 15:44:13;;;;;;;4.95;1.70;;;;;;;;;;5204895;28;20064;-77